Time;durP1;ratioP1;P1;durP2;ratioP2;P2;SDS_P1;SDS_P2;PMS_P1;PMS_P2;Temp;Humidity;BMP_temperature;BMP_pressure;BME280_temperature;BME280_humidity;BME280_pressure;Samples;Min_cycle;Max_cycle;Signal;HPM_P1;HPM_P2
2023/09/05 15:07:58;;;;;;;;;3.25;3.25;;;;;;;;6182450;22;1281848;-80
2023/09/05 15:10:24;;;;;;;;;7.00;7.00;;;;;;;;6308480;22;45211;-80
2023/09/05 15:12:49;;;;;;;;;6.00;5.75;;;;;;;;6306824;22;45271;-83
2023/09/05 15:15:14;;;;;;;;;4.25;4.25;;;;;;;;6307773;22;45480;-76
2023/09/05 15:17:41;;;;;;;;;5.00;4.00;;;;;;;;6277431;22;46256;-77
2023/09/05 15:20:07;;;;;;;;;3.20;3.20;;;;;;;;6283354;22;45276;-76
2023/09/05 15:22:33;;;;;;;;;7.00;6.80;;;;;;;;6306712;22;45789;-76
2023/09/05 15:24:59;;;;;;;;;3.25;2.25;;;;;;;;6308062;22;45328;-81
2023/09/05 15:27:25;;;;;;;;;4.40;4.40;;;;;;;;6307338;22;45312;-81
2023/09/05 15:29:50;;;;;;;;;3.50;3.50;;;;;;;;6307859;22;45328;-81
2023/09/05 15:32:15;;;;;;;;;4.25;2.25;;;;;;;;6307224;22;45137;-79
2023/09/05 15:34:40;;;;;;;;;2.50;2.50;;;;;;;;6307280;22;45356;-80
2023/09/05 15:37:05;;;;;;;;;3.50;2.75;;;;;;;;6307470;22;45215;-80
2023/09/05 15:39:31;;;;;;;;;2.75;2.25;;;;;;;;6279416;22;45234;-80
2023/09/05 15:41:57;;;;;;;;;5.00;5.00;;;;;;;;6308376;22;45215;-81
2023/09/05 15:44:23;;;;;;;;;4.00;2.60;;;;;;;;6307994;22;45220;-80
2023/09/05 15:46:48;;;;;;;;;5.80;5.80;;;;;;;;6308917;22;45195;-78
2023/09/05 15:49:14;;;;;;;;;4.00;3.50;;;;;;;;6308384;22;45291;-79
2023/09/05 15:51:39;;;;;;;;;5.25;2.00;;;;;;;;6308391;22;45240;-79
2023/09/05 15:54:04;;;;;;;;;3.00;3.00;;;;;;;;6308269;22;45353;-81
2023/09/05 15:56:30;;;;;;;;;4.00;3.00;;;;;;;;6280032;22;47111;-81
2023/09/05 15:58:55;;;;;;;;;3.25;2.00;;;;;;;;6280360;22;45226;-80
2023/09/05 16:01:20;;;;;;;;;3.00;3.00;;;;;;;;6307865;22;45247;-80
2023/09/05 16:03:46;;;;;;;;;3.50;2.50;;;;;;;;6307456;22;45410;-80
2023/09/05 16:06:11;;;;;;;;;3.00;3.00;;;;;;;;6308906;22;46048;-82
2023/09/05 16:08:36;;;;;;;;;11.00;8.75;;;;;;;;6307823;22;45251;-80
2023/09/05 16:11:08;;;;;;;;;5.00;3.00;;;;;;;;6307118;22;45228;-79
2023/09/05 16:13:34;;;;;;;;;3.60;2.00;;;;;;;;6308497;22;45175;-82
2023/09/05 16:16:00;;;;;;;;;3.00;3.00;;;;;;;;6307793;22;46085;-83
2023/09/05 16:18:25;;;;;;;;;2.75;2.00;;;;;;;;6308627;22;45343;-83
2023/09/05 16:20:50;;;;;;;;;3.00;3.00;;;;;;;;6308034;22;45162;-82
2023/09/05 16:23:15;;;;;;;;;2.25;2.25;;;;;;;;6307706;22;45492;-80
2023/09/05 16:25:41;;;;;;;;;3.00;3.00;;;;;;;;6307558;22;46365;-78
2023/09/05 16:28:06;;;;;;;;;2.50;2.00;;;;;;;;6307458;22;45243;-79
2023/09/05 16:30:31;;;;;;;;;6.00;3.00;;;;;;;;6308080;22;45386;-79
2023/09/05 16:32:56;;;;;;;;;2.75;2.25;;;;;;;;6308046;22;45572;-79
2023/09/05 16:35:21;;;;;;;;;4.25;2.00;;;;;;;;6280017;22;48173;-80
2023/09/05 16:37:46;;;;;;;;;2.50;2.50;;;;;;;;6309387;22;45280;-80
2023/09/05 16:40:12;;;;;;;;;3.00;3.00;;;;;;;;6309385;22;45468;-80
2023/09/05 16:42:37;;;;;;;;;45.00;36.75;;;;;;;;6310268;22;45444;-81
2023/09/05 16:45:02;;;;;;;;;11.50;10.50;;;;;;;;6312287;22;45334;-78
2023/09/05 16:47:28;;;;;;;;;6.25;6.25;;;;;;;;6320485;22;45263;-77
2023/09/05 16:49:53;;;;;;;;;4.50;2.75;;;;;;;;6315764;22;45176;-78
2023/09/05 16:52:18;;;;;;;;;4.50;4.00;;;;;;;;6305585;22;45507;-80
2023/09/05 16:54:43;;;;;;;;;5.25;3.50;;;;;;;;6308002;22;45984;-80
2023/09/05 16:57:09;;;;;;;;;3.25;2.75;;;;;;;;6307300;22;45241;-79
2023/09/05 16:59:34;;;;;;;;;4.25;3.00;;;;;;;;6280749;22;45302;-79
2023/09/05 17:02:00;;;;;;;;;4.75;2.25;;;;;;;;6307271;22;45515;-77
2023/09/05 17:04:26;;;;;;;;;3.00;3.00;;;;;;;;6280617;22;47215;-81
2023/09/05 17:06:52;;;;;;;;;4.00;3.00;;;;;;;;6307545;22;45249;-83
2023/09/05 17:09:17;;;;;;;;;5.20;3.40;;;;;;;;6280905;22;44725;-83
2023/09/05 17:11:42;;;;;;;;;7.75;4.25;;;;;;;;6307904;22;45267;-84
2023/09/05 17:14:07;;;;;;;;;3.00;3.00;;;;;;;;6308388;22;45469;-78
2023/09/05 17:16:33;;;;;;;;;4.50;4.25;;;;;;;;6308927;22;45263;-84
2023/09/05 17:18:58;;;;;;;;;5.25;5.00;;;;;;;;6309422;22;45165;-84
2023/09/05 17:21:23;;;;;;;;;3.75;3.75;;;;;;;;6309268;22;45401;-84
2023/09/05 17:23:49;;;;;;;;;6.00;5.50;;;;;;;;6312013;22;46048;-82
2023/09/05 17:26:14;;;;;;;;;7.80;5.00;;;;;;;;6312594;22;45293;-83
2023/09/05 17:28:40;;;;;;;;;5.75;4.25;;;;;;;;6313137;22;45182;-82
2023/09/05 17:31:05;;;;;;;;;8.25;7.50;;;;;;;;6314001;22;45529;-86
2023/09/05 17:33:31;;;;;;;;;4.50;3.50;;;;;;;;6313077;22;45264;-83
2023/09/05 17:35:56;;;;;;;;;7.00;7.00;;;;;;;;6282182;22;45355;-84
2023/09/05 17:38:21;;;;;;;;;7.25;6.25;;;;;;;;6309914;22;45294;-84
2023/09/05 17:40:47;;;;;;;;;7.00;7.00;;;;;;;;6310117;22;45390;-82
2023/09/05 17:43:12;;;;;;;;;19.80;15.40;;;;;;;;6309041;22;45432;-81
2023/09/05 17:45:39;;;;;;;;;18.75;16.75;;;;;;;;6310371;22;45254;-82
2023/09/05 17:48:05;;;;;;;;;16.00;16.00;;;;;;;;6310079;22;45223;-84
2023/09/05 17:50:31;;;;;;;;;12.60;9.60;;;;;;;;6309540;22;45476;-83
2023/09/05 17:52:56;;;;;;;;;12.25;12.25;;;;;;;;6281247;22;47338;-82
2023/09/05 17:55:21;;;;;;;;;15.50;12.50;;;;;;;;6310999;22;45323;-86
2023/09/05 17:57:46;;;;;;;;;9.50;9.00;;;;;;;;6311040;22;45192;-85
2023/09/05 18:00:13;;;;;;;;;9.00;5.50;;;;;;;;6310385;22;45432;-85
2023/09/05 18:02:38;;;;;;;;;3.80;3.80;;;;;;;;6309684;22;45414;-85
2023/09/05 18:05:03;;;;;;;;;5.00;5.00;;;;;;;;6310325;22;45192;-87
2023/09/05 18:07:28;;;;;;;;;4.00;4.00;;;;;;;;6309588;22;45176;-83
2023/09/05 18:09:54;;;;;;;;;4.00;4.00;;;;;;;;6310219;22;45402;-85
2023/09/05 18:12:19;;;;;;;;;6.75;5.50;;;;;;;;6310432;22;46124;-82
2023/09/05 18:14:44;;;;;;;;;8.50;8.25;;;;;;;;6313684;22;45241;-83
2023/09/05 18:17:09;;;;;;;;;12.25;9.50;;;;;;;;6316757;22;45066;-83
2023/09/05 18:19:34;;;;;;;;;8.50;8.50;;;;;;;;6318092;22;45233;-81
2023/09/05 18:22:00;;;;;;;;;8.00;7.75;;;;;;;;6315518;22;45470;-81
2023/09/05 18:24:25;;;;;;;;;12.00;11.00;;;;;;;;6315168;22;45410;-84
2023/09/05 18:26:50;;;;;;;;;15.25;15.25;;;;;;;;6309881;22;45247;-80
2023/09/05 18:29:18;;;;;;;;;13.00;10.00;;;;;;;;6309879;22;45231;-81
2023/09/05 18:31:43;;;;;;;;;11.40;10.20;;;;;;;;6309562;22;45271;-81
2023/09/05 18:34:29;;;;;;;;;7.00;7.00;;;;;;;;6310590;22;45322;-82
2023/09/05 18:36:54;;;;;;;;;6.40;6.40;;;;;;;;6309947;22;45240;-81
2023/09/05 18:39:19;;;;;;;;;7.25;6.75;;;;;;;;6310542;22;45323;-81
2023/09/05 18:41:44;;;;;;;;;11.75;9.50;;;;;;;;6310321;22;46036;-81
2023/09/05 18:44:09;;;;;;;;;12.50;11.00;;;;;;;;6310477;22;45257;-82
2023/09/05 18:46:34;;;;;;;;;13.75;11.50;;;;;;;;6309845;22;45537;-81
2023/09/05 18:49:00;;;;;;;;;8.50;8.50;;;;;;;;6310390;22;45246;-83
2023/09/05 18:51:25;;;;;;;;;15.25;14.50;;;;;;;;6281749;22;47051;-84
2023/09/05 18:53:50;;;;;;;;;15.50;14.50;;;;;;;;6310686;22;45223;-83
2023/09/05 18:56:16;;;;;;;;;16.25;14.50;;;;;;;;6310285;22;45456;-84
2023/09/05 18:58:41;;;;;;;;;17.50;14.50;;;;;;;;6310529;22;45151;-81
2023/09/05 19:01:06;;;;;;;;;26.75;25.25;;;;;;;;6282387;22;45988;-85
2023/09/05 19:03:32;;;;;;;;;25.00;24.75;;;;;;;;6311202;22;45140;-81
2023/09/05 19:05:57;;;;;;;;;28.00;25.50;;;;;;;;6310467;22;45193;-82
2023/09/05 19:08:22;;;;;;;;;20.50;20.50;;;;;;;;6311956;22;45224;-83
2023/09/05 19:10:48;;;;;;;;;17.25;16.75;;;;;;;;6312864;22;45148;-82
2023/09/05 19:13:14;;;;;;;;;20.50;17.75;;;;;;;;6284043;22;45240;-80
2023/09/05 19:15:39;;;;;;;;;19.25;17.75;;;;;;;;6310328;22;45157;-81
2023/09/05 19:18:05;;;;;;;;;16.50;16.00;;;;;;;;6311210;22;45422;-81
2023/09/05 19:20:31;;;;;;;;;19.25;18.25;;;;;;;;6309708;22;45310;-81
2023/09/05 19:22:56;;;;;;;;;20.75;18.50;;;;;;;;6308281;22;45340;-81
2023/09/05 19:25:21;;;;;;;;;19.50;16.25;;;;;;;;6309668;22;45794;-80
2023/09/05 19:27:49;;;;;;;;;16.75;15.00;;;;;;;;6309266;22;45617;-80
2023/09/05 19:30:15;;;;;;;;;17.00;17.00;;;;;;;;6308138;22;46205;-80
2023/09/05 19:32:40;;;;;;;;;15.75;13.75;;;;;;;;6308249;22;45279;-80
2023/09/05 19:35:08;;;;;;;;;18.00;17.00;;;;;;;;6310820;22;45243;-81
2023/09/05 19:37:33;;;;;;;;;15.60;14.60;;;;;;;;6309356;22;45199;-81
2023/09/05 19:39:58;;;;;;;;;21.00;14.75;;;;;;;;6282042;22;45991;-80
2023/09/05 19:42:23;;;;;;;;;15.75;15.75;;;;;;;;6309368;22;45112;-79
2023/09/05 19:44:48;;;;;;;;;22.50;19.25;;;;;;;;6310709;22;45182;-81
2023/09/05 19:47:14;;;;;;;;;21.00;19.50;;;;;;;;6310592;22;45826;-80
2023/09/05 19:49:39;;;;;;;;;15.25;14.75;;;;;;;;6311315;22;45378;-80
2023/09/05 19:52:06;;;;;;;;;19.50;17.00;;;;;;;;6293487;22;45451;-82
2023/09/05 19:54:32;;;;;;;;;19.25;17.00;;;;;;;;6302104;22;44689;-83
2023/09/05 19:56:57;;;;;;;;;17.75;15.50;;;;;;;;6315894;22;45258;-83
2023/09/05 19:59:22;;;;;;;;;18.00;15.25;;;;;;;;6314744;22;45501;-82
2023/09/05 20:01:48;;;;;;;;;21.50;18.50;;;;;;;;6311679;22;45267;-82
2023/09/05 20:04:13;;;;;;;;;21.25;19.75;;;;;;;;6281503;22;45236;-80
2023/09/05 20:06:38;;;;;;;;;22.25;18.75;;;;;;;;6281261;22;45378;-79
2023/09/05 20:09:04;;;;;;;;;21.00;17.75;;;;;;;;6309694;22;45247;-80
2023/09/05 20:11:29;;;;;;;;;27.50;22.00;;;;;;;;6308486;22;45371;-80
2023/09/05 20:13:55;;;;;;;;;24.00;20.00;;;;;;;;6309381;22;45220;-81
2023/09/05 20:16:20;;;;;;;;;25.75;24.00;;;;;;;;6309168;22;45636;-81
2023/09/05 20:18:50;;;;;;;;;29.50;25.00;;;;;;;;6309596;22;46226;-79
2023/09/05 20:21:16;;;;;;;;;22.25;21.25;;;;;;;;6309525;22;45236;-80
2023/09/05 20:23:41;;;;;;;;;23.75;22.00;;;;;;;;6309858;22;45279;-83
2023/09/05 20:26:06;;;;;;;;;22.50;21.75;;;;;;;;6310292;22;45444;-83
2023/09/05 20:28:31;;;;;;;;;19.25;19.25;;;;;;;;6310684;22;45204;-81
2023/09/05 20:30:58;;;;;;;;;18.00;16.25;;;;;;;;6309916;22;45216;-81
2023/09/05 20:33:23;;;;;;;;;21.50;18.75;;;;;;;;6309775;22;45267;-79
2023/09/05 20:35:53;;;;;;;;;18.75;17.50;;;;;;;;6310240;22;45208;-81
2023/09/05 20:38:19;;;;;;;;;21.00;17.75;;;;;;;;6280526;22;47085;-80
2023/09/05 20:40:47;;;;;;;;;19.25;18.50;;;;;;;;6281402;22;45284;-79
2023/09/05 20:43:12;;;;;;;;;21.75;19.75;;;;;;;;6309563;22;45223;-80
2023/09/05 20:45:38;;;;;;;;;19.25;18.00;;;;;;;;6309443;22;45393;-79
2023/09/05 20:48:04;;;;;;;;;19.00;16.25;;;;;;;;6308419;22;46174;-80
2023/09/05 20:50:29;;;;;;;;;18.25;16.00;;;;;;;;6309160;22;45239;-80
2023/09/05 20:52:54;;;;;;;;;22.50;18.00;;;;;;;;6308555;22;45395;-80
2023/09/05 20:55:20;;;;;;;;;19.00;19.00;;;;;;;;6308895;22;45274;-85
2023/09/05 20:57:45;;;;;;;;;23.25;20.00;;;;;;;;6308695;22;45965;-86
2023/09/05 21:00:10;;;;;;;;;20.25;19.00;;;;;;;;6309553;22;44601;-86
2023/09/05 21:02:35;;;;;;;;;19.50;19.50;;;;;;;;6308586;22;45257;-83
2023/09/05 21:05:01;;;;;;;;;20.50;17.50;;;;;;;;6284049;22;45361;-84
2023/09/05 21:07:28;;;;;;;;;25.00;20.25;;;;;;;;6309684;22;46387;-81
2023/09/05 21:09:53;;;;;;;;;21.75;19.25;;;;;;;;6309568;22;45172;-82
2023/09/05 21:12:18;;;;;;;;;17.50;17.25;;;;;;;;6281548;22;45484;-84
2023/09/05 21:14:48;;;;;;;;;21.25;20.75;;;;;;;;6280613;22;45953;-83
2023/09/05 21:17:14;;;;;;;;;21.50;21.25;;;;;;;;6308605;22;45283;-84
2023/09/05 21:19:39;;;;;;;;;20.75;20.75;;;;;;;;6255524;22;45695;-84
2023/09/05 21:22:04;;;;;;;;;21.25;21.00;;;;;;;;6308355;22;45531;-83
2023/09/05 21:24:29;;;;;;;;;25.75;22.50;;;;;;;;6308758;22;45272;-83
2023/09/05 21:26:54;;;;;;;;;23.00;19.75;;;;;;;;6308411;22;46169;-84
2023/09/05 21:29:20;;;;;;;;;19.25;19.25;;;;;;;;6309863;22;45228;-83
2023/09/05 21:31:45;;;;;;;;;17.00;17.00;;;;;;;;6311097;22;45193;-83
2023/09/05 21:34:10;;;;;;;;;21.75;19.50;;;;;;;;6311228;22;45260;-85
